California, MD

8:27 PM EST on January 27, 2015 (GMT -0500)
Leonardtown | Change Station
CLOSE
Current Station
Airport
Location: Leonardtown,
Elevation: 141 ft
Nearby Weather Stations

Elev 141 ft 38.32 °N, 76.55 °W | Updated 25 minutes ago

Mostly Cloudy
Mostly Cloudy
32 °F
Feels Like 25 °F
N
8
Wind Variable Wind from NW
Gusts 21 mph

Today
High -- | Low -- °F
--% Chance of Precip.
Yesterday
High -- | Low -- °F
Precip. -- in
7:15 AM 5:22 PM
First Quarter, 59% visible
Pressure 29.88 in
Visibility 10.0 miles
Clouds Clear
Windchill 25 °F
Dew Point 21 °F
Humidity 64%
Rainfall 0.00 in
Snow Depth Not available.
UV 0 out of 12
Pollen .30 out of 12
Air Quality Not available.
Flu Activity Not available.
METAR K2W6 280102Z AUTO 31007G18KT 280V000 10SM CLR 00/M06 A2988 RMK AO1

More Conditions Fewer Conditions

Pressure 29.88 in
Visibility 10.0 miles
Clouds Clear
Windchill 25 °F
Dew Point 21 °F
Humidity 64%
Rainfall 0.00 in
Snow Depth Not available.
UV 0 out of 12
Pollen .30 out of 12
Air Quality Not available.
Flu Activity Not available.
METAR K2W6 280102Z AUTO 31007G18KT 280V000 10SM CLR 00/M06 A2988 RMK AO1

More Conditions Fewer Conditions

10-Day Weather Forecast

Almanac

Astronomy

Jan. 27, 2015 Rise Set
Actual Time
Civil Twilight
Nautical Twilight
Astronomical Twilight
Moon
Length of Visible Light
Length of Day
Tomorrow will be .
, % of the Moon is Illuminated

Today's Extremes

State Highs State Lows

Community

WunderPhotos

Upload Photos

1,791,024 photos uploaded!

WunderBlogs® & News

Nearby

Air Quality

  Air Quality AQ Index Pollutant
Not available.

Snow Depth

Station Depth Elevation

Earthquake Activity

City Distance Mag. Time & Date
Minimum magnitude displayed is 2.5.

Coastal Water Temperatures

Place Temperature

Nearby Weather Stations